createdAt,value
2018-09-27T00:00:58.174Z,4.03
2018-09-27T00:03:26.313Z,4.50
2018-09-27T00:05:54.463Z,4.00
2018-09-27T00:08:22.624Z,4.10
2018-09-27T00:10:50.766Z,3.70
2018-09-27T00:13:18.964Z,4.43
2018-09-27T00:15:46.889Z,3.93
2018-09-27T00:18:14.785Z,4.00
2018-09-27T00:20:42.733Z,3.47
2018-09-27T00:23:10.916Z,4.40
2018-09-27T00:25:39.077Z,3.80
2018-09-27T00:28:06.985Z,3.73
2018-09-27T00:30:35.194Z,3.60
2018-09-27T00:33:03.410Z,5.83
2018-09-27T00:35:31.577Z,4.00
2018-09-27T00:37:59.514Z,4.13
2018-09-27T00:40:27.677Z,4.30
2018-09-27T00:42:55.838Z,4.07
2018-09-27T00:45:23.986Z,5.17
2018-09-27T00:47:52.158Z,4.70
2018-09-27T00:50:20.318Z,4.43
2018-09-27T00:52:48.466Z,4.23
2018-09-27T00:55:16.373Z,4.33
2018-09-27T00:57:44.607Z,4.03
2018-09-27T01:00:12.771Z,4.87
2018-09-27T01:02:40.943Z,4.07
2018-09-27T01:05:09.113Z,4.40
2018-09-27T01:07:37.247Z,4.40
2018-09-27T01:10:05.552Z,4.50
2018-09-27T01:12:33.685Z,4.37
2018-09-27T01:15:01.898Z,4.73
2018-09-27T01:17:30.083Z,4.40
2018-09-27T01:19:58.226Z,4.30
2018-09-27T01:22:26.358Z,4.27
2018-09-27T01:24:54.518Z,4.80
2018-09-27T01:27:22.678Z,4.80
2018-09-27T01:29:50.855Z,4.53
2018-09-27T01:32:19.041Z,5.00
2018-09-27T01:34:47.213Z,4.30
2018-09-27T01:37:15.389Z,4.33
2018-09-27T01:39:43.302Z,4.20
2018-09-27T01:42:11.482Z,4.90
2018-09-27T01:44:39.637Z,5.40
2018-09-27T01:47:07.847Z,5.93
2018-09-27T01:49:35.962Z,5.17
2018-09-27T01:52:04.146Z,5.13
2018-09-27T01:54:32.309Z,5.03
2018-09-27T01:57:00.478Z,5.53
2018-09-27T01:59:28.597Z,4.97
2018-09-27T02:01:56.809Z,4.77
2018-09-27T02:04:24.946Z,5.20
2018-09-27T02:06:52.864Z,4.83
2018-09-27T02:09:21.053Z,4.70
2018-09-27T02:11:49.199Z,4.60
2018-09-27T02:14:17.337Z,4.90
2018-09-27T02:16:45.517Z,4.37
2018-09-27T02:19:13.682Z,9.57
2018-09-27T02:21:41.822Z,7.60
2018-09-27T02:24:09.995Z,5.03
2018-09-27T02:26:38.146Z,4.90
2018-09-27T02:29:06.273Z,4.97
2018-09-27T02:31:34.425Z,4.83
2018-09-27T02:34:02.337Z,4.83
2018-09-27T02:36:30.315Z,5.03
2018-09-27T02:38:58.470Z,4.60
2018-09-27T02:41:26.647Z,4.97
2018-09-27T02:43:54.793Z,4.83
2018-09-27T02:46:22.755Z,4.97
2018-09-27T02:48:50.687Z,4.67
2018-09-27T02:51:18.930Z,4.63
2018-09-27T02:53:47.054Z,4.87
2018-09-27T02:56:14.986Z,3.87
2018-09-27T02:58:42.926Z,4.67
2018-09-27T03:01:11.281Z,13.33
2018-09-27T03:03:39.254Z,16.93
2018-09-27T03:06:07.826Z,10.03
2018-09-27T03:08:35.967Z,11.37
2018-09-27T03:11:04.109Z,9.43
2018-09-27T03:13:32.261Z,8.27
2018-09-27T03:16:00.169Z,7.20
2018-09-27T03:18:28.293Z,6.50
2018-09-27T03:20:56.494Z,5.53
2018-09-27T03:23:24.650Z,5.13
2018-09-27T03:25:52.836Z,4.93
2018-09-27T03:28:20.745Z,4.57
2018-09-27T03:30:48.956Z,5.40
2018-09-27T03:33:17.133Z,4.77
2018-09-27T03:35:45.275Z,4.80
2018-09-27T03:38:13.422Z,4.90
2018-09-27T03:40:41.703Z,5.43
2018-09-27T03:43:09.791Z,5.70
2018-09-27T03:45:37.718Z,5.43
2018-09-27T03:48:05.858Z,5.80
2018-09-27T03:50:33.995Z,5.13
2018-09-27T03:53:02.137Z,5.47
2018-09-27T03:55:30.277Z,4.77
2018-09-27T03:57:58.661Z,5.50
2018-09-27T04:00:26.590Z,5.30
2018-09-27T04:02:54.741Z,4.90
2018-09-27T04:05:22.888Z,4.33
2018-09-27T04:07:51.020Z,5.30
2018-09-27T04:10:19.289Z,4.87
2018-09-27T04:12:47.201Z,5.30
2018-09-27T04:15:15.364Z,5.40
2018-09-27T04:17:43.272Z,5.07
2018-09-27T04:20:11.177Z,4.90
2018-09-27T04:22:39.109Z,5.20
2018-09-27T04:25:07.017Z,4.77
2018-09-27T04:27:34.929Z,4.20
2018-09-27T04:30:03.070Z,4.60
2018-09-27T04:32:31.219Z,4.73
2018-09-27T04:34:59.365Z,4.63
2018-09-27T04:37:27.529Z,4.77
2018-09-27T04:39:55.788Z,5.30
2018-09-27T04:42:23.963Z,5.23
2018-09-27T04:44:52.138Z,5.33
2018-09-27T04:47:20.279Z,5.27
2018-09-27T04:49:48.447Z,4.53
2018-09-27T04:52:16.743Z,5.13
2018-09-27T04:54:45.047Z,5.00
2018-09-27T04:57:12.961Z,5.37
2018-09-27T04:59:41.166Z,5.60
2018-09-27T05:02:09.367Z,5.03
2018-09-27T05:04:37.574Z,5.17
2018-09-27T05:07:05.782Z,5.13
2018-09-27T05:09:34.005Z,5.27
2018-09-27T05:12:02.193Z,4.93
2018-09-27T05:14:30.141Z,4.43
2018-09-27T05:16:58.321Z,5.33
2018-09-27T05:19:26.526Z,5.30
2018-09-27T05:21:54.717Z,5.10
2018-09-27T05:24:22.932Z,5.20
2018-09-27T05:26:50.906Z,4.80
2018-09-27T05:29:19.081Z,5.37
2018-09-27T05:31:47.277Z,5.10
2018-09-27T05:34:15.465Z,5.27
2018-09-27T05:36:43.658Z,5.20
2018-09-27T05:39:11.855Z,4.80
2018-09-27T05:41:40.170Z,5.27
2018-09-27T05:44:08.878Z,5.00
2018-09-27T05:46:36.853Z,5.70
2018-09-27T05:49:04.833Z,5.10
2018-09-27T05:51:32.853Z,5.50
2018-09-27T05:54:01.390Z,5.37
2018-09-27T05:56:29.436Z,5.20
2018-09-27T05:58:57.380Z,5.27
2018-09-27T06:01:25.572Z,5.40
2018-09-27T06:03:53.751Z,5.50
2018-09-27T06:06:21.921Z,5.20
2018-09-27T06:08:50.137Z,5.37
2018-09-27T06:11:18.328Z,5.80
2018-09-27T06:13:46.519Z,5.80
2018-09-27T06:16:14.721Z,6.53
2018-09-27T06:18:43.001Z,6.37
2018-09-27T06:21:10.962Z,6.30
2018-09-27T06:23:38.913Z,6.17
2018-09-27T06:26:07.092Z,5.60
2018-09-27T06:28:35.047Z,6.40
2018-09-27T06:31:03.238Z,6.07
2018-09-27T06:33:31.562Z,5.90
2018-09-27T06:35:59.702Z,6.73
2018-09-27T06:38:27.900Z,6.17
2018-09-27T06:40:56.109Z,6.07
2018-09-27T06:43:24.291Z,7.00
2018-09-27T06:45:52.468Z,6.50
2018-09-27T06:48:20.465Z,6.60
2018-09-27T06:50:48.606Z,5.93
2018-09-27T06:53:16.782Z,5.90
2018-09-27T06:55:44.853Z,6.83
2018-09-27T06:58:12.909Z,6.40
2018-09-27T07:00:41.121Z,6.30
2018-09-27T07:03:09.083Z,6.43
2018-09-27T07:05:37.269Z,5.97
2018-09-27T07:08:05.505Z,6.70
2018-09-27T07:10:33.444Z,6.43
2018-09-27T07:13:01.665Z,6.77
2018-09-27T07:15:29.898Z,5.67
2018-09-27T07:17:58.177Z,6.23
2018-09-27T07:20:26.227Z,7.17
2018-09-27T07:22:54.480Z,6.63
2018-09-27T07:25:22.426Z,6.47
2018-09-27T07:27:50.810Z,6.43
2018-09-27T07:30:18.985Z,6.93
2018-09-27T07:32:47.174Z,6.90
2018-09-27T07:35:15.345Z,6.07
2018-09-27T07:37:43.630Z,6.23
2018-09-27T07:40:11.836Z,6.27
2018-09-27T07:42:40.015Z,6.63
2018-09-27T07:45:08.169Z,6.60
2018-09-27T07:47:36.123Z,6.43
2018-09-27T07:50:04.486Z,6.50
2018-09-27T07:52:32.752Z,6.73
2018-09-27T07:55:00.981Z,6.10
2018-09-27T07:57:29.150Z,5.97
2018-09-27T07:59:57.302Z,5.97
2018-09-27T08:02:25.537Z,6.63
2018-09-27T08:04:53.666Z,6.60
2018-09-27T08:07:21.842Z,6.10
2018-09-27T08:09:49.820Z,6.33
2018-09-27T08:12:18.001Z,6.07
2018-09-27T08:14:46.180Z,6.50
2018-09-27T08:17:14.480Z,7.00
2018-09-27T08:19:42.625Z,6.70
2018-09-27T08:22:10.840Z,7.00
2018-09-27T08:24:38.833Z,7.27
2018-09-27T08:27:06.808Z,7.57
2018-09-27T08:29:35.114Z,6.80
2018-09-27T08:32:03.349Z,8.30
2018-09-27T08:34:31.541Z,7.77
2018-09-27T08:36:59.722Z,8.00
2018-09-27T08:39:27.942Z,8.87
2018-09-27T08:41:55.911Z,8.03
2018-09-27T08:44:24.115Z,7.80
2018-09-27T08:46:52.074Z,8.70
2018-09-27T08:49:20.353Z,8.73
2018-09-27T08:51:48.652Z,8.77
2018-09-27T08:54:16.877Z,8.50
2018-09-27T08:56:45.081Z,8.47
2018-09-27T08:59:13.360Z,8.40
2018-09-27T09:01:41.624Z,7.90
2018-09-27T09:04:09.801Z,7.83
2018-09-27T09:06:38.019Z,7.40
2018-09-27T09:09:08.770Z,7.17
2018-09-27T09:11:36.978Z,7.77
2018-09-27T09:14:05.161Z,8.07
2018-09-27T09:16:33.105Z,7.70
2018-09-27T09:19:01.073Z,7.47
2018-09-27T09:21:29.070Z,8.27
2018-09-27T09:23:57.029Z,7.80
2018-09-27T09:26:25.209Z,8.13
2018-09-27T09:28:53.274Z,8.27
2018-09-27T09:31:21.500Z,8.03
2018-09-27T09:33:49.726Z,7.63
2018-09-27T09:36:17.925Z,7.60
2018-09-27T09:38:46.146Z,7.50
2018-09-27T09:41:14.369Z,7.80
2018-09-27T09:43:42.583Z,7.93
2018-09-27T09:46:10.826Z,8.10
2018-09-27T09:48:38.790Z,8.10
2018-09-27T09:51:06.984Z,7.57
2018-09-27T09:53:34.949Z,7.50
2018-09-27T09:56:03.503Z,7.50
2018-09-27T09:58:31.451Z,7.60
2018-09-27T10:00:59.645Z,7.27
2018-09-27T10:03:27.865Z,7.50
2018-09-27T10:05:56.400Z,7.67
2018-09-27T10:08:24.651Z,7.53
2018-09-27T10:10:52.830Z,8.00
2018-09-27T10:13:21.063Z,7.10
2018-09-27T10:15:49.255Z,6.90
2018-09-27T10:18:17.593Z,7.17
2018-09-27T10:20:45.816Z,7.17
2018-09-27T10:23:14.017Z,6.83
2018-09-27T10:25:42.247Z,6.83
2018-09-27T10:28:10.430Z,6.43
2018-09-27T10:30:38.627Z,6.80
2018-09-27T10:33:06.806Z,6.10
2018-09-27T10:35:35.003Z,6.50
2018-09-27T10:38:03.066Z,6.87
2018-09-27T10:40:31.386Z,7.20
2018-09-27T10:42:59.655Z,7.23
2018-09-27T10:45:27.801Z,6.20
2018-09-27T10:47:55.978Z,6.83
2018-09-27T10:50:23.979Z,6.57
2018-09-27T10:52:52.122Z,6.40
2018-09-27T10:55:20.038Z,6.30
2018-09-27T10:57:48.271Z,5.70
2018-09-27T11:00:21.524Z,5.50
2018-09-27T11:02:49.841Z,6.20
2018-09-27T11:05:17.973Z,5.50
2018-09-27T11:07:46.147Z,5.00
2018-09-27T11:10:14.346Z,4.90
2018-09-27T11:12:42.673Z,5.47
2018-09-27T11:15:10.810Z,4.93
2018-09-27T11:17:39.330Z,5.37
2018-09-27T11:20:07.494Z,5.33
2018-09-27T11:22:35.630Z,4.30
2018-09-27T11:25:03.581Z,4.27
2018-09-27T11:27:31.754Z,3.93
2018-09-27T11:30:05.286Z,3.40
2018-09-27T11:32:37.667Z,3.33
2018-09-27T11:35:06.839Z,3.20
2018-09-27T11:37:35.053Z,2.80
2018-09-27T11:40:03.232Z,3.37
2018-09-27T11:42:31.203Z,3.13
2018-09-27T11:44:59.062Z,2.87
2018-09-27T11:47:27.028Z,2.83
2018-09-27T11:49:55.036Z,2.57
2018-09-27T11:52:22.929Z,2.50
2018-09-27T11:54:51.372Z,2.87
2018-09-27T11:57:19.510Z,2.80
2018-09-27T11:59:47.659Z,2.50
2018-09-27T12:02:16.233Z,2.83
2018-09-27T12:04:44.174Z,2.43
2018-09-27T12:07:12.330Z,2.30
2018-09-27T12:09:40.513Z,2.50
2018-09-27T12:12:08.688Z,1.60
2018-09-27T12:14:36.586Z,1.77
2018-09-27T12:17:04.710Z,1.80
2018-09-27T12:19:32.914Z,1.70
2018-09-27T12:22:00.770Z,2.13
2018-09-27T12:24:28.917Z,1.70
2018-09-27T12:26:57.062Z,2.00
2018-09-27T12:29:25.216Z,7.67
2018-09-27T12:31:53.378Z,1.90
2018-09-27T12:34:21.598Z,2.10
2018-09-27T12:36:49.744Z,2.33
2018-09-27T12:39:17.886Z,2.40
2018-09-27T12:41:46.120Z,2.43
2018-09-27T12:44:13.943Z,2.40
2018-09-27T12:46:42.149Z,2.03
2018-09-27T12:49:10.246Z,2.20
2018-09-27T12:51:38.428Z,2.00
2018-09-27T12:54:06.282Z,2.07
2018-09-27T12:56:34.458Z,2.10
2018-09-27T12:59:02.389Z,2.23
2018-09-27T13:01:30.615Z,1.70
2018-09-27T13:03:58.792Z,2.20
2018-09-27T13:06:26.902Z,2.00
2018-09-27T13:08:54.836Z,2.17
2018-09-27T13:11:22.994Z,3.63
2018-09-27T13:13:51.150Z,2.33
2018-09-27T13:16:19.062Z,2.30
2018-09-27T13:18:46.985Z,2.37
2018-09-27T13:21:14.891Z,2.10
2018-09-27T13:23:43.054Z,2.17
2018-09-27T13:26:11.251Z,1.77
2018-09-27T13:28:39.478Z,2.00
2018-09-27T13:31:07.633Z,2.00
2018-09-27T13:33:35.619Z,2.07
2018-09-27T13:36:03.780Z,1.90
2018-09-27T13:38:31.931Z,2.23
2018-09-27T13:41:00.111Z,1.90
2018-09-27T13:43:28.259Z,1.90
2018-09-27T13:45:56.165Z,2.00
2018-09-27T13:48:24.315Z,1.73
2018-09-27T13:50:52.508Z,2.47
2018-09-27T13:53:20.610Z,1.90
2018-09-27T13:55:48.739Z,1.63
2018-09-27T13:58:16.894Z,1.80
2018-09-27T14:00:45.128Z,1.60
2018-09-27T14:03:13.289Z,1.87
2018-09-27T14:05:41.419Z,2.20
2018-09-27T14:08:09.578Z,1.80
2018-09-27T14:10:38.111Z,1.50
2018-09-27T14:13:06.350Z,1.60
2018-09-27T14:15:34.550Z,1.57
2018-09-27T14:18:02.734Z,1.50
2018-09-27T14:20:30.893Z,1.60
2018-09-27T14:22:59.066Z,1.80
2018-09-27T14:25:27.081Z,1.63
2018-09-27T14:27:55.238Z,2.00
2018-09-27T14:30:23.418Z,1.70
2018-09-27T14:32:51.562Z,1.40
2018-09-27T14:35:19.770Z,1.90
2018-09-27T14:37:47.993Z,1.70
2018-09-27T14:40:16.158Z,1.67
2018-09-27T14:42:44.387Z,1.40
2018-09-27T14:45:12.508Z,1.60
2018-09-27T14:47:40.739Z,1.67
2018-09-27T14:50:08.917Z,1.43
2018-09-27T14:52:37.041Z,1.40
2018-09-27T14:55:05.126Z,1.50
2018-09-27T14:57:33.162Z,1.43
2018-09-27T15:00:01.364Z,1.50
2018-09-27T15:02:29.659Z,1.40
2018-09-27T15:04:57.541Z,1.23
2018-09-27T15:07:25.706Z,1.70
2018-09-27T15:09:54.048Z,1.90
2018-09-27T15:12:22.162Z,1.77
2018-09-27T15:14:50.362Z,1.80
2018-09-27T15:17:18.506Z,1.67
2018-09-27T15:19:46.671Z,1.50
2018-09-27T15:22:14.918Z,1.60
2018-09-27T15:24:43.082Z,1.60
2018-09-27T15:27:11.251Z,1.70
2018-09-27T15:29:39.743Z,1.77
2018-09-27T15:32:07.895Z,1.53
2018-09-27T15:34:36.050Z,1.70
2018-09-27T15:37:04.202Z,1.60
2018-09-27T15:39:32.351Z,1.60
2018-09-27T15:42:00.531Z,1.70
2018-09-27T15:44:28.683Z,1.70
2018-09-27T15:46:56.911Z,1.90
2018-09-27T15:49:24.894Z,1.90
2018-09-27T15:51:52.909Z,2.00
2018-09-27T15:54:21.118Z,1.90
2018-09-27T15:56:49.232Z,2.20
2018-09-27T15:59:17.421Z,2.00
2018-09-27T16:01:45.591Z,2.77
2018-09-27T16:04:13.866Z,2.77
2018-09-27T16:06:41.955Z,2.80
2018-09-27T16:09:11.278Z,2.20
2018-09-27T16:11:39.833Z,2.33
2018-09-27T16:14:07.981Z,2.90
2018-09-27T16:16:36.110Z,3.23
2018-09-27T16:19:04.298Z,3.30
2018-09-27T16:21:32.458Z,3.53
2018-09-27T16:24:00.694Z,3.40
2018-09-27T16:26:28.938Z,3.60
2018-09-27T16:28:57.053Z,3.87
2018-09-27T16:31:25.207Z,3.67
2018-09-27T16:33:53.345Z,4.97
2018-09-27T16:36:21.602Z,4.30
2018-09-27T16:38:49.758Z,4.70
2018-09-27T16:41:17.922Z,4.53
2018-09-27T16:43:45.837Z,4.80
2018-09-27T16:46:14.017Z,4.60
2018-09-27T16:48:42.161Z,4.60
2018-09-27T16:51:10.439Z,4.30
2018-09-27T16:53:38.490Z,4.17
2018-09-27T16:56:06.747Z,4.20
2018-09-27T16:58:35.016Z,4.23
2018-09-27T17:01:03.194Z,3.43
2018-09-27T17:03:31.426Z,3.83
2018-09-27T17:05:59.660Z,4.13
2018-09-27T17:08:27.902Z,3.23
2018-09-27T17:10:55.913Z,3.70
2018-09-27T17:13:24.138Z,3.60
2018-09-27T17:15:52.406Z,3.50
2018-09-27T17:18:20.394Z,2.70
2018-09-27T17:20:50.590Z,3.17
2018-09-27T17:23:18.815Z,4.77
2018-09-27T17:25:47.058Z,5.77
2018-09-27T17:28:15.279Z,4.50
2018-09-27T17:30:43.194Z,4.53
2018-09-27T17:33:11.288Z,4.60
2018-09-27T17:35:40.340Z,4.10
2018-09-27T17:38:08.438Z,4.93
2018-09-27T17:40:36.434Z,4.80
2018-09-27T17:43:04.582Z,5.10
2018-09-27T17:45:33.599Z,5.17
2018-09-27T17:48:01.553Z,4.70
2018-09-27T17:50:29.773Z,4.27
2018-09-27T17:52:58.113Z,4.93
2018-09-27T17:55:26.196Z,5.00
2018-09-27T17:57:54.145Z,4.80
2018-09-27T18:00:22.117Z,4.77
2018-09-27T18:02:50.119Z,4.40
2018-09-27T18:05:19.561Z,4.83
2018-09-27T18:07:46.689Z,4.73
2018-09-27T18:10:14.802Z,4.37
2018-09-27T18:12:43.055Z,4.87
2018-09-27T18:15:11.053Z,4.70
2018-09-27T18:17:39.082Z,5.67
2018-09-27T18:20:07.017Z,5.50
2018-09-27T18:22:35.106Z,5.60
2018-09-27T18:25:03.204Z,5.50
2018-09-27T18:27:31.278Z,6.57
2018-09-27T18:29:59.578Z,6.10
2018-09-27T18:32:27.754Z,5.73
2018-09-27T18:34:55.889Z,5.90
2018-09-27T18:37:24.177Z,5.57
2018-09-27T18:39:52.299Z,5.43
2018-09-27T18:42:20.610Z,5.40
2018-09-27T18:44:48.938Z,5.47
2018-09-27T18:47:23.316Z,6.07
2018-09-27T18:49:52.638Z,5.70
2018-09-27T18:52:20.934Z,6.10
2018-09-27T18:54:51.273Z,5.90
2018-09-27T18:57:19.229Z,6.30
2018-09-27T18:59:48.477Z,6.35
2018-09-27T19:02:16.761Z,6.47
2018-09-27T19:04:47.857Z,6.33
2018-09-27T19:07:21.180Z,6.47
2018-09-27T19:09:49.420Z,5.97
2018-09-27T19:12:17.578Z,6.37
2018-09-27T19:14:45.766Z,6.47
2018-09-27T19:17:14.048Z,6.03
2018-09-27T19:19:45.608Z,6.70
2018-09-27T19:22:13.955Z,6.13
2018-09-27T19:24:42.172Z,7.90
2018-09-27T19:27:14.734Z,6.97
2018-09-27T19:29:42.905Z,6.80
2018-09-27T19:32:11.093Z,5.90
2018-09-27T19:34:39.359Z,6.17
2018-09-27T19:37:08.561Z,6.27
2018-09-27T19:39:37.762Z,5.80
2018-09-27T19:42:06.019Z,6.50
2018-09-27T19:44:34.219Z,6.33
2018-09-27T19:47:02.488Z,6.10
2018-09-27T19:49:30.878Z,6.00
2018-09-27T19:51:59.168Z,6.07
2018-09-27T19:54:27.162Z,6.03
2018-09-27T19:57:00.613Z,6.10
2018-09-27T19:59:28.905Z,5.63
2018-09-27T20:02:00.001Z,5.70
2018-09-27T20:04:28.248Z,5.70
2018-09-27T20:06:58.418Z,6.50
2018-09-27T20:09:26.365Z,5.67
2018-09-27T20:11:55.614Z,5.30
2018-09-27T20:14:23.845Z,5.43
2018-09-27T20:16:53.054Z,5.70
2018-09-27T20:19:21.019Z,5.97
2018-09-27T20:21:48.941Z,7.00
2018-09-27T20:24:16.946Z,6.40
2018-09-27T20:26:46.154Z,6.70
2018-09-27T20:29:15.338Z,5.10
2018-09-27T20:31:44.542Z,5.80
2018-09-27T20:34:12.643Z,5.17
2018-09-27T20:36:41.718Z,5.40
2018-09-27T20:39:09.688Z,5.00
2018-09-27T20:41:37.958Z,5.07
2018-09-27T20:44:06.150Z,5.03
2018-09-27T20:46:34.421Z,5.00
2018-09-27T20:49:03.698Z,4.70
2018-09-27T20:51:31.875Z,5.00
2018-09-27T20:54:00.131Z,4.33
2018-09-27T20:56:28.255Z,5.40
2018-09-27T20:58:56.421Z,5.30
2018-09-27T21:01:24.585Z,4.83
2018-09-27T21:03:52.742Z,4.70
2018-09-27T21:06:20.877Z,5.37
2018-09-27T21:08:49.042Z,4.73
2018-09-27T21:11:17.193Z,4.40
2018-09-27T21:13:45.333Z,5.13
2018-09-27T21:16:14.294Z,4.70
2018-09-27T21:18:42.547Z,5.00
2018-09-27T21:21:10.706Z,5.13
2018-09-27T21:23:38.850Z,4.90
2018-09-27T21:26:06.772Z,4.87
2018-09-27T21:28:34.697Z,4.43
2018-09-27T21:31:02.890Z,4.60
2018-09-27T21:33:31.050Z,4.70
2018-09-27T21:35:59.215Z,4.83
2018-09-27T21:38:27.368Z,4.80
2018-09-27T21:40:55.529Z,4.57
2018-09-27T21:43:23.795Z,4.83
2018-09-27T21:45:51.805Z,4.83
2018-09-27T21:48:19.963Z,5.33
2018-09-27T21:50:48.093Z,4.90
2018-09-27T21:53:16.237Z,4.87
2018-09-27T21:55:44.366Z,4.97
2018-09-27T21:58:12.526Z,5.33
2018-09-27T22:00:40.670Z,4.67
2018-09-27T22:03:08.819Z,4.80
2018-09-27T22:05:36.957Z,5.67
2018-09-27T22:08:05.169Z,5.23
2018-09-27T22:10:33.312Z,5.13
2018-09-27T22:13:01.281Z,4.90
2018-09-27T22:15:29.421Z,5.23
2018-09-27T22:17:57.634Z,5.20
2018-09-27T22:20:25.765Z,4.73
2018-09-27T22:22:53.915Z,4.40
2018-09-27T22:25:22.050Z,5.37
2018-09-27T22:27:50.215Z,4.80
2018-09-27T22:30:18.101Z,5.13
2018-09-27T22:32:46.249Z,5.00
2018-09-27T22:35:14.182Z,5.20
2018-09-27T22:37:42.317Z,4.87
2018-09-27T22:40:10.477Z,5.27
2018-09-27T22:42:38.633Z,5.90
2018-09-27T22:45:06.844Z,5.63
2018-09-27T22:47:34.765Z,5.97
2018-09-27T22:50:02.661Z,6.13
2018-09-27T22:52:30.825Z,5.60
2018-09-27T22:54:59.025Z,7.00
2018-09-27T22:57:26.941Z,5.80
2018-09-27T22:59:55.190Z,5.33
2018-09-27T23:02:23.376Z,5.40
2018-09-27T23:04:51.535Z,6.23
2018-09-27T23:07:19.485Z,6.20
2018-09-27T23:09:47.627Z,6.90
2018-09-27T23:12:15.817Z,6.00
2018-09-27T23:14:45.049Z,6.70
2018-09-27T23:17:12.969Z,5.83
2018-09-27T23:19:40.894Z,5.80
2018-09-27T23:22:08.832Z,6.00
2018-09-27T23:24:37.014Z,6.70
2018-09-27T23:27:05.178Z,5.90
2018-09-27T23:29:33.342Z,6.10
2018-09-27T23:32:01.482Z,6.33
2018-09-27T23:34:29.670Z,5.90
2018-09-27T23:36:57.829Z,6.07
2018-09-27T23:39:26.001Z,5.57
2018-09-27T23:41:53.921Z,6.27
2018-09-27T23:44:22.074Z,6.50
2018-09-27T23:46:50.275Z,6.60
2018-09-27T23:49:18.489Z,7.30
2018-09-27T23:51:46.676Z,7.00
2018-09-27T23:54:14.559Z,7.40
2018-09-27T23:56:42.734Z,8.20
2018-09-27T23:59:10.889Z,7.20
